createdAt,value
2018-10-01T00:01:56.398Z,64.70
2018-10-01T00:04:29.920Z,64.80
2018-10-01T00:07:03.517Z,64.70
2018-10-01T00:09:43.419Z,65.00
2018-10-01T00:12:17.029Z,65.10
2018-10-01T00:14:50.758Z,65.10
2018-10-01T00:17:24.420Z,65.00
2018-10-01T00:20:03.506Z,65.10
2018-10-01T00:22:42.535Z,64.80
2018-10-01T00:25:16.257Z,64.70
2018-10-01T00:27:49.894Z,64.70
2018-10-01T00:30:23.449Z,64.60
2018-10-01T00:32:56.898Z,64.70
2018-10-01T00:35:30.498Z,64.50
2018-10-01T00:38:05.028Z,64.50
2018-10-01T00:40:39.755Z,64.60
2018-10-01T00:43:13.449Z,64.80
2018-10-01T00:45:46.952Z,64.60
2018-10-01T00:48:20.524Z,64.60
2018-10-01T00:50:54.908Z,64.50
2018-10-01T00:53:28.344Z,64.70
2018-10-01T00:56:08.753Z,64.70
2018-10-01T00:58:42.436Z,64.60
2018-10-01T01:01:16.160Z,65.00
2018-10-01T01:03:49.835Z,65.50
2018-10-01T01:06:23.419Z,65.10
2018-10-01T01:08:56.846Z,65.00
2018-10-01T01:11:34.630Z,65.00
2018-10-01T01:14:08.006Z,64.90
2018-10-01T01:16:48.086Z,65.60
2018-10-01T01:19:21.758Z,65.70
2018-10-01T01:22:02.095Z,66.00
2018-10-01T01:24:35.679Z,66.70
2018-10-01T01:27:09.334Z,65.90
2018-10-01T01:29:43.761Z,66.60
2018-10-01T01:32:17.347Z,66.40
2018-10-01T01:34:50.790Z,65.70
2018-10-01T01:37:24.414Z,65.60
2018-10-01T01:42:38.989Z,65.60
2018-10-01T01:45:12.569Z,65.80
2018-10-01T01:50:26.158Z,65.70
2018-10-01T01:52:59.677Z,66.00
2018-10-01T01:55:33.081Z,66.20
2018-10-01T01:58:06.598Z,66.20
2018-10-01T02:00:41.087Z,66.30
2018-10-01T02:03:14.640Z,66.30
2018-10-01T02:05:48.173Z,66.10
2018-10-01T02:08:21.925Z,66.00
2018-10-01T02:10:55.513Z,66.00
2018-10-01T02:13:29.022Z,65.90
2018-10-01T02:16:02.651Z,66.10
2018-10-01T02:18:36.236Z,66.10
2018-10-01T02:21:10.782Z,66.20
2018-10-01T02:23:44.319Z,66.00
2018-10-01T02:26:24.320Z,66.00
2018-10-01T02:28:57.993Z,66.20
2018-10-01T02:31:31.618Z,66.30
2018-10-01T02:34:06.173Z,66.20
2018-10-01T02:36:39.850Z,66.00
2018-10-01T02:39:14.410Z,66.00
2018-10-01T02:41:48.053Z,65.70
2018-10-01T02:44:21.576Z,65.60
2018-10-01T02:46:55.164Z,65.60
2018-10-01T02:49:35.483Z,65.60
2018-10-01T02:52:15.801Z,65.50
2018-10-01T02:54:49.504Z,65.40
2018-10-01T02:57:23.057Z,65.60
2018-10-01T02:59:56.529Z,65.80
2018-10-01T03:02:30.216Z,65.70
2018-10-01T03:05:03.821Z,65.60
2018-10-01T03:07:37.497Z,65.80
2018-10-01T03:10:10.931Z,65.80
2018-10-01T03:12:44.407Z,65.80
2018-10-01T03:15:19.022Z,65.70
2018-10-01T03:17:52.537Z,65.80
2018-10-01T03:20:26.211Z,65.80
2018-10-01T03:22:59.758Z,65.70
2018-10-01T03:25:33.291Z,65.70
2018-10-01T03:28:06.868Z,65.70
2018-10-01T03:30:46.818Z,65.70
2018-10-01T03:33:20.487Z,65.80
2018-10-01T03:35:54.158Z,66.00
2018-10-01T03:38:34.022Z,66.30
2018-10-01T03:41:14.031Z,66.30
2018-10-01T03:43:47.550Z,66.20
2018-10-01T03:46:21.081Z,66.10
2018-10-01T03:48:54.541Z,66.10
2018-10-01T03:51:34.415Z,66.20
2018-10-01T03:54:08.992Z,66.30
2018-10-01T03:56:42.559Z,66.50
2018-10-01T03:59:16.079Z,66.50
2018-10-01T04:01:55.956Z,66.40
2018-10-01T04:04:29.429Z,66.50
2018-10-01T04:07:03.032Z,66.90
2018-10-01T04:09:42.784Z,67.90
2018-10-01T04:12:22.740Z,67.90
2018-10-01T04:14:56.207Z,68.10
2018-10-01T04:17:30.752Z,68.10
2018-10-01T04:20:04.516Z,68.20
2018-10-01T04:22:39.015Z,68.40
2018-10-01T04:25:12.393Z,68.40
2018-10-01T04:27:52.219Z,68.20
2018-10-01T04:30:32.532Z,68.00
2018-10-01T04:33:06.203Z,68.40
2018-10-01T04:35:39.782Z,68.40
2018-10-01T04:38:13.231Z,68.50
2018-10-01T04:40:46.766Z,68.50
2018-10-01T04:43:21.323Z,68.60
2018-10-01T04:45:55.032Z,68.40
2018-10-01T04:48:28.644Z,68.40
2018-10-01T04:51:02.312Z,68.70
2018-10-01T04:53:35.840Z,68.40
2018-10-01T04:56:15.716Z,68.60
2018-10-01T04:58:49.336Z,68.70
2018-10-01T05:01:22.922Z,69.00
2018-10-01T05:03:56.387Z,69.00
2018-10-01T05:06:36.423Z,68.90
2018-10-01T05:09:10.361Z,68.80
2018-10-01T05:11:43.936Z,69.00
2018-10-01T05:14:17.270Z,69.00
2018-10-01T05:16:51.754Z,69.20
2018-10-01T05:19:25.279Z,69.20
2018-10-01T05:21:58.866Z,69.20
2018-10-01T05:24:32.681Z,69.30
2018-10-01T05:27:06.307Z,69.40
2018-10-01T05:29:39.715Z,69.70
2018-10-01T05:32:13.239Z,69.70
2018-10-01T05:34:51.991Z,69.70
2018-10-01T05:37:25.676Z,69.70
2018-10-01T05:40:00.153Z,69.70
2018-10-01T05:42:33.631Z,69.70
2018-10-01T05:45:13.526Z,69.70
2018-10-01T05:47:46.882Z,69.60
2018-10-01T05:50:20.400Z,69.50
2018-10-01T05:52:53.948Z,69.60
2018-10-01T05:55:27.538Z,69.70
2018-10-01T05:58:01.117Z,70.00
2018-10-01T06:00:41.132Z,70.10
2018-10-01T06:03:15.175Z,70.10
2018-10-01T06:05:55.066Z,70.10
2018-10-01T06:08:28.651Z,69.80
2018-10-01T06:11:02.263Z,69.50
2018-10-01T06:13:42.161Z,70.30
2018-10-01T06:16:15.620Z,69.60
2018-10-01T06:18:55.469Z,69.70
2018-10-01T06:21:35.461Z,69.70
2018-10-01T06:24:09.146Z,69.70
2018-10-01T06:26:49.003Z,70.00
2018-10-01T06:29:29.017Z,70.10
2018-10-01T06:32:02.718Z,70.30
2018-10-01T06:34:36.228Z,70.40
2018-10-01T06:37:09.659Z,70.40
2018-10-01T06:39:49.556Z,70.70
2018-10-01T06:42:23.149Z,71.30
2018-10-01T06:44:56.576Z,70.90
2018-10-01T06:47:30.032Z,71.10
2018-10-01T06:50:03.760Z,71.10
2018-10-01T06:52:37.318Z,71.10
2018-10-01T06:55:10.895Z,71.40
2018-10-01T06:57:45.408Z,71.40
2018-10-01T07:00:18.922Z,71.50
2018-10-01T07:02:53.490Z,71.30
2018-10-01T07:05:33.704Z,71.30
2018-10-01T07:08:13.560Z,71.20
2018-10-01T07:10:47.197Z,70.90
2018-10-01T07:14:50.303Z,70.80
2018-10-01T07:17:24.829Z,70.90
2018-10-01T07:19:58.352Z,70.90
2018-10-01T07:22:31.822Z,70.90
2018-10-01T07:25:11.802Z,70.60
2018-10-01T07:27:51.566Z,69.50
2018-10-01T07:30:25.247Z,69.40
2018-10-01T07:33:05.164Z,69.00
2018-10-01T07:35:39.603Z,68.90
2018-10-01T07:38:13.181Z,68.60
2018-10-01T07:40:46.638Z,68.50
2018-10-01T07:43:20.160Z,68.50
2018-10-01T07:45:59.965Z,68.50
2018-10-01T07:48:40.379Z,68.30
2018-10-01T07:51:20.268Z,68.20
2018-10-01T07:54:00.101Z,68.20
2018-10-01T07:56:40.034Z,68.20
2018-10-01T07:59:20.085Z,67.90
2018-10-01T08:02:00.372Z,67.70
2018-10-01T08:04:40.695Z,67.80
2018-10-01T08:07:14.727Z,67.80
2018-10-01T08:09:48.464Z,67.30
2018-10-01T08:12:28.768Z,67.00
2018-10-01T08:15:02.608Z,66.90
2018-10-01T08:17:36.373Z,67.60
2018-10-01T08:20:16.669Z,66.80
2018-10-01T08:22:50.531Z,65.60
2018-10-01T08:25:24.247Z,65.00
2018-10-01T08:28:04.472Z,64.70
2018-10-01T08:30:44.892Z,65.30
2018-10-01T08:33:18.754Z,66.60
2018-10-01T08:35:53.675Z,65.70
2018-10-01T08:38:33.941Z,64.60
2018-10-01T08:41:14.212Z,65.10
2018-10-01T08:43:54.267Z,64.30
2018-10-01T08:46:28.118Z,64.10
2018-10-01T08:49:10.824Z,64.20
2018-10-01T08:51:51.029Z,64.30
2018-10-01T08:54:43.394Z,65.20
2018-10-01T08:57:23.545Z,65.50
2018-10-01T08:59:57.548Z,64.40
2018-10-01T09:02:37.745Z,65.00
2018-10-01T09:05:11.740Z,65.40
2018-10-01T09:07:45.707Z,64.90
2018-10-01T09:10:25.922Z,64.70
2018-10-01T09:13:00.898Z,64.10
2018-10-01T09:15:34.705Z,63.00
2018-10-01T09:18:08.496Z,62.00
2018-10-01T09:20:48.595Z,63.70
2018-10-01T09:23:22.395Z,59.70
2018-10-01T09:25:56.426Z,55.30
2018-10-01T09:28:30.433Z,55.50
2018-10-01T09:31:10.741Z,54.00
2018-10-01T09:33:50.942Z,53.50
2018-10-01T09:36:24.928Z,52.30
2018-10-01T09:38:58.787Z,53.20
2018-10-01T09:41:32.717Z,55.40
2018-10-01T09:44:13.105Z,50.00
2018-10-01T09:46:46.912Z,49.20
2018-10-01T09:49:21.878Z,45.40
2018-10-01T09:52:02.182Z,41.80
2018-10-01T09:54:36.207Z,48.40
2018-10-01T09:57:11.184Z,55.10
2018-10-01T09:59:45.127Z,59.80
2018-10-01T10:02:25.436Z,62.90
2018-10-01T10:05:05.805Z,65.10
2018-10-01T10:07:39.916Z,67.10
2018-10-01T10:10:14.920Z,67.80
2018-10-01T10:12:55.197Z,69.40
2018-10-01T10:15:29.298Z,67.10
2018-10-01T10:18:04.381Z,67.00
2018-10-01T10:20:38.450Z,66.70
2018-10-01T10:23:12.353Z,66.30
2018-10-01T10:25:46.340Z,66.20
2018-10-01T10:28:26.771Z,65.60
2018-10-01T10:31:06.835Z,63.00
2018-10-01T10:33:40.582Z,63.80
2018-10-01T10:36:21.019Z,62.40
2018-10-01T10:38:55.949Z,61.80
2018-10-01T10:41:29.965Z,62.60
2018-10-01T10:44:04.928Z,61.80
2018-10-01T10:46:45.210Z,61.70
2018-10-01T10:49:19.179Z,60.40
2018-10-01T10:51:59.335Z,59.80
2018-10-01T10:54:33.153Z,59.10
2018-10-01T10:57:07.144Z,59.10
2018-10-01T10:59:41.903Z,60.00
2018-10-01T11:02:16.089Z,59.80
2018-10-01T11:04:50.038Z,60.20
2018-10-01T11:07:30.255Z,58.80
2018-10-01T11:10:04.256Z,57.80
2018-10-01T11:12:38.115Z,58.50
2018-10-01T11:15:12.248Z,57.40
2018-10-01T11:17:45.898Z,55.10
2018-10-01T11:20:26.490Z,55.10
2018-10-01T11:23:00.817Z,55.80
2018-10-01T11:25:34.976Z,55.00
2018-10-01T11:28:15.168Z,54.90
2018-10-01T11:30:49.027Z,54.60
2018-10-01T11:33:22.998Z,53.70
2018-10-01T11:35:57.979Z,53.60
2018-10-01T11:38:38.189Z,52.20
2018-10-01T11:41:12.150Z,51.60
2018-10-01T11:43:52.538Z,50.80
2018-10-01T11:46:26.555Z,51.40
2018-10-01T11:49:00.420Z,52.40
2018-10-01T11:51:34.168Z,53.00
2018-10-01T11:54:14.415Z,53.70
2018-10-01T11:56:48.199Z,53.20
2018-10-01T11:59:22.135Z,52.80
2018-10-01T12:01:56.100Z,53.80
2018-10-01T12:04:34.243Z,53.50
2018-10-01T12:07:08.068Z,51.70
2018-10-01T12:09:48.537Z,49.60
2018-10-01T12:12:22.444Z,50.30
2018-10-01T12:14:56.281Z,48.80
2018-10-01T12:17:36.424Z,50.30
2018-10-01T12:20:10.431Z,51.10
2018-10-01T12:22:44.407Z,56.40
2018-10-01T12:25:18.428Z,59.10
2018-10-01T12:27:58.702Z,62.70
2018-10-01T12:30:32.624Z,64.60
2018-10-01T12:33:06.549Z,65.60
2018-10-01T12:35:40.404Z,66.20
2018-10-01T12:38:14.352Z,63.70
2018-10-01T12:40:53.374Z,61.60
2018-10-01T12:43:34.192Z,61.70
2018-10-01T12:46:08.137Z,61.70
2018-10-01T12:48:42.945Z,59.40
2018-10-01T12:51:17.000Z,58.50
2018-10-01T12:53:50.904Z,59.30
2018-10-01T12:56:24.957Z,59.10
2018-10-01T12:58:58.955Z,58.10
2018-10-01T13:01:32.882Z,54.10
2018-10-01T13:04:13.284Z,55.30
2018-10-01T13:06:47.135Z,53.90
2018-10-01T13:09:27.418Z,53.60
2018-10-01T13:12:02.665Z,53.40
2018-10-01T13:14:36.658Z,53.80
2018-10-01T13:17:11.442Z,51.80
2018-10-01T13:19:51.833Z,51.20
2018-10-01T13:22:32.091Z,51.80
2018-10-01T13:25:12.470Z,51.60
2018-10-01T13:27:52.655Z,48.50
2018-10-01T13:30:27.472Z,45.10
2018-10-01T13:33:02.393Z,45.10
2018-10-01T13:35:37.346Z,47.20
2018-10-01T13:38:17.726Z,48.30
2018-10-01T13:40:57.848Z,50.20
2018-10-01T13:43:31.727Z,50.50
2018-10-01T13:46:05.610Z,53.30
2018-10-01T13:48:46.098Z,57.40
2018-10-01T13:51:25.211Z,58.80
2018-10-01T13:54:05.671Z,55.60
2018-10-01T13:56:46.039Z,55.90
2018-10-01T13:59:19.903Z,52.30
2018-10-01T14:01:53.940Z,52.60
2018-10-01T14:04:28.824Z,50.60
2018-10-01T14:07:09.407Z,48.70
2018-10-01T14:09:43.241Z,49.70
2018-10-01T14:12:23.462Z,48.90
2018-10-01T14:15:04.011Z,49.10
2018-10-01T14:17:38.531Z,50.30
2018-10-01T14:20:12.562Z,52.00
2018-10-01T14:22:46.488Z,53.50
2018-10-01T14:25:26.828Z,54.40
2018-10-01T14:28:06.977Z,55.60
2018-10-01T14:30:40.909Z,59.20
2018-10-01T14:33:14.950Z,58.50
2018-10-01T14:35:55.275Z,57.00
2018-10-01T14:38:35.580Z,57.30
2018-10-01T14:41:09.517Z,58.30
2018-10-01T14:43:43.566Z,60.80
2018-10-01T14:46:23.954Z,56.40
2018-10-01T14:48:57.774Z,52.40
2018-10-01T14:51:38.431Z,49.00
2018-10-01T14:54:18.639Z,49.20
2018-10-01T14:56:53.487Z,49.70
2018-10-01T14:59:28.156Z,50.40
2018-10-01T15:02:02.083Z,49.40
2018-10-01T15:04:42.250Z,51.10
2018-10-01T15:07:16.009Z,52.40
2018-10-01T15:09:49.859Z,52.80
2018-10-01T15:12:30.011Z,53.00
2018-10-01T15:15:04.278Z,52.20
2018-10-01T15:17:38.179Z,52.00
2018-10-01T15:20:18.429Z,51.60
2018-10-01T15:22:58.723Z,52.10
2018-10-01T15:25:33.615Z,52.80
2018-10-01T15:28:12.724Z,53.10
2018-10-01T15:30:52.832Z,53.10
2018-10-01T15:33:33.224Z,53.20
2018-10-01T15:36:10.249Z,53.20
2018-10-01T15:38:45.098Z,52.50
2018-10-01T15:41:18.971Z,51.80
2018-10-01T15:43:59.059Z,50.90
2018-10-01T15:46:39.376Z,50.60
2018-10-01T15:49:14.337Z,50.90
2018-10-01T15:51:49.136Z,51.30
2018-10-01T15:54:22.995Z,51.20
2018-10-01T15:56:56.870Z,51.50
2018-10-01T15:59:30.654Z,51.20
2018-10-01T16:02:10.951Z,51.40
2018-10-01T16:04:44.965Z,51.90
2018-10-01T16:07:19.139Z,52.20
2018-10-01T16:09:53.181Z,52.00
2018-10-01T16:12:27.228Z,51.80
2018-10-01T16:15:07.501Z,52.10
2018-10-01T16:17:41.584Z,52.30
2018-10-01T16:20:22.274Z,52.50
2018-10-01T16:22:56.312Z,53.20
2018-10-01T16:25:36.630Z,52.60
2018-10-01T16:28:10.559Z,52.80
2018-10-01T16:30:51.358Z,53.10
2018-10-01T16:33:31.631Z,53.20
2018-10-01T16:36:06.558Z,53.30
2018-10-01T16:38:41.525Z,53.60
2018-10-01T16:41:15.615Z,54.00
2018-10-01T16:43:49.412Z,54.20
2018-10-01T16:46:23.517Z,54.30
2018-10-01T16:48:58.495Z,54.20
2018-10-01T16:51:32.333Z,53.40
2018-10-01T16:54:06.322Z,53.20
2018-10-01T16:56:40.090Z,52.80
2018-10-01T16:59:14.036Z,52.60
2018-10-01T17:01:54.090Z,52.30
2018-10-01T17:04:34.402Z,51.80
2018-10-01T17:07:08.233Z,51.60
2018-10-01T17:09:42.094Z,51.40
2018-10-01T17:12:22.175Z,51.10
2018-10-01T17:15:02.599Z,51.60
2018-10-01T17:17:36.512Z,51.70
2018-10-01T17:20:16.695Z,52.00
2018-10-01T17:22:57.023Z,52.10
2018-10-01T17:25:30.830Z,52.10
2018-10-01T17:28:05.054Z,52.50
2018-10-01T17:30:45.259Z,52.80
2018-10-01T17:33:20.073Z,53.10
2018-10-01T17:35:53.963Z,53.40
2018-10-01T17:38:27.994Z,53.80
2018-10-01T17:41:01.823Z,53.80
2018-10-01T17:43:35.508Z,54.40
2018-10-01T17:46:09.434Z,54.40
2018-10-01T17:48:43.305Z,54.70
2018-10-01T17:51:17.193Z,55.10
2018-10-01T17:53:51.151Z,55.50
2018-10-01T17:56:27.254Z,56.00
2018-10-01T17:59:01.123Z,56.00
2018-10-01T18:01:34.983Z,56.00
2018-10-01T18:04:08.939Z,56.10
2018-10-01T18:06:43.097Z,56.20
2018-10-01T18:09:16.880Z,56.40
2018-10-01T18:11:57.320Z,56.30
2018-10-01T18:14:31.123Z,56.60
2018-10-01T18:17:11.183Z,57.00
2018-10-01T18:19:51.480Z,57.00
2018-10-01T18:22:26.362Z,57.20
2018-10-01T18:25:00.401Z,57.20
2018-10-01T18:27:34.363Z,57.30
2018-10-01T18:30:08.327Z,57.30
2018-10-01T18:32:48.330Z,57.40
2018-10-01T18:35:28.738Z,57.50
2018-10-01T18:38:09.112Z,58.40
2018-10-01T18:40:43.103Z,58.50
2018-10-01T18:43:17.904Z,58.50
2018-10-01T18:45:52.787Z,58.40
2018-10-01T18:48:26.728Z,58.60
2018-10-01T18:51:00.574Z,58.70
2018-10-01T18:53:34.560Z,58.50
2018-10-01T18:56:08.579Z,59.10
2018-10-01T18:58:42.462Z,59.30
2018-10-01T19:01:16.370Z,59.50
2018-10-01T19:03:50.296Z,59.50
2018-10-01T19:06:30.540Z,59.40
2018-10-01T19:09:11.393Z,59.70
2018-10-01T19:11:45.222Z,59.10
2018-10-01T19:14:18.969Z,59.50
2018-10-01T19:16:59.348Z,59.80
2018-10-01T19:19:39.556Z,60.10
2018-10-01T19:22:13.426Z,60.20
2018-10-01T19:24:47.457Z,60.10
2018-10-01T19:27:21.425Z,60.10
2018-10-01T19:29:55.191Z,60.10
2018-10-01T19:32:35.368Z,60.30
2018-10-01T19:35:09.186Z,60.80
2018-10-01T19:37:49.434Z,60.70
2018-10-01T19:40:23.413Z,61.00
2018-10-01T19:42:58.331Z,61.10
2018-10-01T19:45:38.642Z,61.20
2018-10-01T19:48:18.975Z,61.40
2018-10-01T19:50:52.943Z,61.20
2018-10-01T19:53:26.763Z,61.20
2018-10-01T19:56:07.248Z,61.30
2018-10-01T19:58:41.318Z,61.20
2018-10-01T20:01:21.583Z,61.10
2018-10-01T20:04:01.864Z,61.00
2018-10-01T20:06:42.135Z,61.00
2018-10-01T20:09:22.552Z,61.00
2018-10-01T20:12:02.570Z,61.20
2018-10-01T20:14:36.427Z,61.10
2018-10-01T20:17:11.233Z,61.30
2018-10-01T20:19:51.363Z,61.40
2018-10-01T20:22:26.284Z,61.30
2018-10-01T20:25:00.200Z,61.00
2018-10-01T20:27:34.247Z,61.00
2018-10-01T20:30:14.675Z,61.10
2018-10-01T20:32:48.458Z,61.10
2018-10-01T20:35:22.400Z,60.90
2018-10-01T20:37:56.246Z,61.00
2018-10-01T20:40:29.957Z,61.30
2018-10-01T20:43:03.979Z,61.60
2018-10-01T20:45:44.373Z,61.80
2018-10-01T20:48:18.081Z,61.90
2018-10-01T20:50:58.425Z,62.10
2018-10-01T20:53:38.786Z,62.10
2018-10-01T20:56:12.674Z,62.10
2018-10-01T20:58:47.631Z,62.10
2018-10-01T21:01:22.353Z,61.90
2018-10-01T21:04:02.527Z,62.10
2018-10-01T21:06:42.781Z,62.10
2018-10-01T21:09:16.666Z,62.30
2018-10-01T21:11:50.682Z,62.30
2018-10-01T21:14:24.684Z,62.50
2018-10-01T21:16:58.488Z,62.60
2018-10-01T21:19:33.375Z,62.60
2018-10-01T21:22:07.259Z,62.60
2018-10-01T21:24:41.241Z,63.60
2018-10-01T21:27:15.167Z,63.70
2018-10-01T21:29:49.173Z,63.60
2018-10-01T21:32:23.688Z,63.80
2018-10-01T21:34:57.580Z,63.70
2018-10-01T21:37:31.327Z,63.80
2018-10-01T21:40:11.345Z,63.80
2018-10-01T21:42:51.586Z,63.80
2018-10-01T21:45:31.737Z,63.60
2018-10-01T21:48:05.593Z,63.80
2018-10-01T21:50:39.388Z,64.00
2018-10-01T21:53:13.298Z,63.90
2018-10-01T21:55:47.264Z,63.90
2018-10-01T21:58:21.053Z,63.90
2018-10-01T22:01:00.626Z,64.10
2018-10-01T22:03:40.891Z,64.10
2018-10-01T22:06:14.713Z,64.40
2018-10-01T22:08:49.535Z,64.70
2018-10-01T22:11:23.451Z,64.90
2018-10-01T22:13:57.284Z,64.80
2018-10-01T22:16:31.195Z,64.70
2018-10-01T22:19:05.013Z,64.30
2018-10-01T22:21:39.075Z,64.50
2018-10-01T22:24:19.245Z,64.60
2018-10-01T22:26:53.180Z,64.60
2018-10-01T22:29:33.586Z,64.80
2018-10-01T22:32:13.826Z,64.70
2018-10-01T22:34:54.272Z,64.70
2018-10-01T22:37:28.040Z,65.00
2018-10-01T22:40:02.807Z,65.00
2018-10-01T22:42:36.642Z,65.00
2018-10-01T22:45:11.545Z,65.00
2018-10-01T22:47:45.402Z,65.30
2018-10-01T22:50:19.426Z,65.30
2018-10-01T22:52:59.611Z,65.60
2018-10-01T22:55:33.521Z,65.80
2018-10-01T22:58:08.287Z,66.00
2018-10-01T23:00:42.184Z,66.10
2018-10-01T23:03:16.048Z,66.50
2018-10-01T23:05:49.941Z,66.60
2018-10-01T23:08:23.832Z,67.00
2018-10-01T23:10:57.814Z,67.60
2018-10-01T23:13:32.854Z,67.10
2018-10-01T23:16:06.794Z,67.60
2018-10-01T23:18:40.446Z,67.50
2018-10-01T23:21:14.341Z,67.50
2018-10-01T23:23:48.231Z,67.20
2018-10-01T23:26:22.159Z,67.50
2018-10-01T23:28:56.870Z,67.60
2018-10-01T23:31:31.662Z,68.10
2018-10-01T23:34:05.718Z,68.30
2018-10-01T23:36:39.583Z,68.50
2018-10-01T23:39:13.318Z,69.50
2018-10-01T23:41:53.613Z,69.30
2018-10-01T23:44:27.608Z,68.70
2018-10-01T23:47:01.482Z,69.30
2018-10-01T23:49:35.340Z,69.50
2018-10-01T23:52:09.198Z,70.60
2018-10-01T23:54:43.011Z,69.60
2018-10-01T23:57:16.783Z,69.80
2018-10-01T23:59:50.507Z,69.70
